createdAt,value
2018-10-03T00:02:26.230Z,10.40
2018-10-03T00:04:53.524Z,10.40
2018-10-03T00:07:20.957Z,10.40
2018-10-03T00:09:48.187Z,10.40
2018-10-03T00:12:15.453Z,10.80
2018-10-03T00:14:42.728Z,10.50
2018-10-03T00:17:09.984Z,10.50
2018-10-03T00:19:37.278Z,10.50
2018-10-03T00:22:04.546Z,10.50
2018-10-03T00:24:31.815Z,10.50
2018-10-03T00:26:59.085Z,10.50
2018-10-03T00:29:26.347Z,10.50
2018-10-03T00:31:53.603Z,10.40
2018-10-03T00:34:20.919Z,10.50
2018-10-03T00:36:48.222Z,10.40
2018-10-03T00:39:15.519Z,10.50
2018-10-03T00:41:42.772Z,10.40
2018-10-03T00:44:09.991Z,10.40
2018-10-03T00:46:37.572Z,10.40
2018-10-03T00:49:05.557Z,11.10
2018-10-03T00:51:32.787Z,10.50
2018-10-03T00:53:59.981Z,10.50
2018-10-03T00:56:28.203Z,10.50
2018-10-03T00:58:55.432Z,10.50
2018-10-03T01:01:22.717Z,10.40
2018-10-03T01:03:49.951Z,10.40
2018-10-03T01:06:17.176Z,10.40
2018-10-03T01:08:44.397Z,10.60
2018-10-03T01:11:11.624Z,10.40
2018-10-03T01:13:38.963Z,10.50
2018-10-03T01:16:06.171Z,10.80
2018-10-03T01:18:33.375Z,10.50
2018-10-03T01:21:00.632Z,10.50
2018-10-03T01:23:27.936Z,10.50
2018-10-03T01:25:55.183Z,10.50
2018-10-03T01:28:22.434Z,10.50
2018-10-03T01:30:49.663Z,10.50
2018-10-03T01:33:16.936Z,10.50
2018-10-03T01:35:44.120Z,10.60
2018-10-03T01:38:11.346Z,10.60
2018-10-03T01:40:38.569Z,10.60
2018-10-03T01:43:05.886Z,10.60
2018-10-03T01:45:33.160Z,10.50
2018-10-03T01:48:00.355Z,10.50
2018-10-03T01:50:27.614Z,10.50
2018-10-03T01:52:54.873Z,10.40
2018-10-03T01:55:22.124Z,10.50
2018-10-03T01:57:49.648Z,10.60
2018-10-03T02:00:16.965Z,10.60
2018-10-03T02:02:44.280Z,10.50
2018-10-03T02:05:11.543Z,10.50
2018-10-03T02:07:38.754Z,10.60
2018-10-03T02:10:06.002Z,10.60
2018-10-03T02:12:33.218Z,10.60
2018-10-03T02:15:00.431Z,10.60
2018-10-03T02:17:27.705Z,10.60
2018-10-03T02:19:54.928Z,10.60
2018-10-03T02:22:22.162Z,10.60
2018-10-03T02:24:49.379Z,10.60
2018-10-03T02:27:16.623Z,10.60
2018-10-03T02:29:43.828Z,10.60
2018-10-03T02:32:11.080Z,10.60
2018-10-03T02:34:38.287Z,10.60
2018-10-03T02:37:05.483Z,10.70
2018-10-03T02:39:32.691Z,10.60
2018-10-03T02:41:59.892Z,10.70
2018-10-03T02:44:27.096Z,10.70
2018-10-03T02:46:54.292Z,10.80
2018-10-03T02:49:21.548Z,10.80
2018-10-03T02:51:48.799Z,10.80
2018-10-03T02:54:16.114Z,10.80
2018-10-03T02:56:43.364Z,10.80
2018-10-03T02:59:10.703Z,10.80
2018-10-03T03:01:38.027Z,10.80
2018-10-03T03:04:05.224Z,10.80
2018-10-03T03:06:32.485Z,10.80
2018-10-03T03:08:59.756Z,10.80
2018-10-03T03:11:26.979Z,10.80
2018-10-03T03:13:54.233Z,10.90
2018-10-03T03:16:21.595Z,10.90
2018-10-03T03:18:48.847Z,10.90
2018-10-03T03:21:16.287Z,10.90
2018-10-03T03:23:43.539Z,10.90
2018-10-03T03:26:10.855Z,10.90
2018-10-03T03:28:38.088Z,10.90
2018-10-03T03:31:05.383Z,10.90
2018-10-03T03:33:32.673Z,10.90
2018-10-03T03:35:59.919Z,10.90
2018-10-03T03:38:27.167Z,10.90
2018-10-03T03:40:54.421Z,10.90
2018-10-03T03:43:21.754Z,10.90
2018-10-03T03:45:49.191Z,10.00
2018-10-03T03:48:16.519Z,10.80
2018-10-03T03:50:43.885Z,10.90
2018-10-03T03:53:11.262Z,10.90
2018-10-03T03:55:38.640Z,10.90
2018-10-03T03:58:06.008Z,10.90
2018-10-03T04:00:33.722Z,10.90
2018-10-03T04:03:01.112Z,10.90
2018-10-03T04:05:28.508Z,10.90
2018-10-03T04:07:55.888Z,10.90
2018-10-03T04:10:23.340Z,10.90
2018-10-03T04:12:50.866Z,10.90
2018-10-03T04:15:18.394Z,10.90
2018-10-03T04:17:45.774Z,10.90
2018-10-03T04:20:13.099Z,10.90
2018-10-03T04:22:40.472Z,10.90
2018-10-03T04:25:07.948Z,10.90
2018-10-03T04:27:35.526Z,10.90
2018-10-03T04:30:03.034Z,10.90
2018-10-03T04:32:30.450Z,10.80
2018-10-03T04:34:57.911Z,10.90
2018-10-03T04:37:25.306Z,10.90
2018-10-03T04:39:52.650Z,12.90
2018-10-03T04:42:20.019Z,11.10
2018-10-03T04:44:47.249Z,10.90
2018-10-03T04:47:14.573Z,10.90
2018-10-03T04:49:41.909Z,10.90
2018-10-03T04:52:09.287Z,10.90
2018-10-03T04:54:36.581Z,10.90
2018-10-03T04:57:03.932Z,10.90
2018-10-03T04:59:31.284Z,10.90
2018-10-03T05:01:58.599Z,10.90
2018-10-03T05:04:25.893Z,10.90
2018-10-03T05:06:53.422Z,10.90
2018-10-03T05:09:20.921Z,10.90
2018-10-03T05:11:48.270Z,10.90
2018-10-03T05:14:15.627Z,11.00
2018-10-03T05:16:44.439Z,10.90
2018-10-03T05:19:11.822Z,11.00
2018-10-03T05:21:39.187Z,11.00
2018-10-03T05:24:06.591Z,10.90
2018-10-03T05:26:33.968Z,11.00
2018-10-03T05:29:01.307Z,11.00
2018-10-03T05:31:30.748Z,11.00
2018-10-03T05:33:58.159Z,11.00
2018-10-03T05:36:26.095Z,10.90
2018-10-03T05:38:53.597Z,11.00
2018-10-03T05:41:20.907Z,11.00
2018-10-03T05:43:48.347Z,11.00
2018-10-03T05:46:15.734Z,11.00
2018-10-03T05:48:43.135Z,11.10
2018-10-03T05:51:10.437Z,11.10
2018-10-03T05:53:37.859Z,11.10
2018-10-03T05:56:05.128Z,11.10
2018-10-03T05:58:32.725Z,11.10
2018-10-03T06:01:00.091Z,11.10
2018-10-03T06:03:27.645Z,11.20
2018-10-03T06:05:55.072Z,11.20
2018-10-03T06:08:22.526Z,11.20
2018-10-03T06:10:49.915Z,11.50
2018-10-03T06:13:17.362Z,11.30
2018-10-03T06:15:44.880Z,11.20
2018-10-03T06:18:12.226Z,11.30
2018-10-03T06:20:39.826Z,11.30
2018-10-03T06:23:07.373Z,11.30
2018-10-03T06:25:34.719Z,11.30
2018-10-03T06:28:02.162Z,11.30
2018-10-03T06:30:29.516Z,11.30
2018-10-03T06:32:57.084Z,11.30
2018-10-03T06:35:24.447Z,11.30
2018-10-03T06:37:51.772Z,11.30
2018-10-03T06:40:19.170Z,11.60
2018-10-03T06:42:46.518Z,11.40
2018-10-03T06:45:13.866Z,11.40
2018-10-03T06:47:41.262Z,11.50
2018-10-03T06:50:08.687Z,11.40
2018-10-03T06:52:36.070Z,11.40
2018-10-03T06:55:03.906Z,11.50
2018-10-03T06:57:31.403Z,11.50
2018-10-03T06:59:58.716Z,11.50
2018-10-03T07:02:26.164Z,11.50
2018-10-03T07:04:53.495Z,11.80
2018-10-03T07:07:21.197Z,11.50
2018-10-03T07:09:48.545Z,11.40
2018-10-03T07:12:16.004Z,11.30
2018-10-03T07:14:43.376Z,11.40
2018-10-03T07:17:10.982Z,11.30
2018-10-03T07:19:38.391Z,11.20
2018-10-03T07:22:05.757Z,11.30
2018-10-03T07:24:33.086Z,11.30
2018-10-03T07:27:00.381Z,11.20
2018-10-03T07:29:27.868Z,11.10
2018-10-03T07:31:55.276Z,11.10
2018-10-03T07:34:23.045Z,11.10
2018-10-03T07:36:50.535Z,11.10
2018-10-03T07:39:17.867Z,11.20
2018-10-03T07:41:45.146Z,11.20
2018-10-03T07:44:12.504Z,11.30
2018-10-03T07:46:39.763Z,11.30
2018-10-03T07:49:07.096Z,11.40
2018-10-03T07:51:34.383Z,11.40
2018-10-03T07:54:02.224Z,11.40
2018-10-03T07:56:29.627Z,11.40
2018-10-03T07:58:56.950Z,11.50
2018-10-03T08:01:24.234Z,11.60
2018-10-03T08:03:52.406Z,11.90
2018-10-03T08:06:19.662Z,12.10
2018-10-03T08:08:46.943Z,12.20
2018-10-03T08:11:14.175Z,12.30
2018-10-03T08:13:41.477Z,12.50
2018-10-03T08:16:08.747Z,12.60
2018-10-03T08:18:36.047Z,12.90
2018-10-03T08:21:03.369Z,13.00
2018-10-03T08:23:30.997Z,13.30
2018-10-03T08:25:58.255Z,13.70
2018-10-03T08:28:25.512Z,14.10
2018-10-03T08:30:52.832Z,14.30
2018-10-03T08:33:20.451Z,14.30
2018-10-03T08:35:47.660Z,14.20
2018-10-03T08:38:14.966Z,14.00
2018-10-03T08:40:42.229Z,13.90
2018-10-03T08:43:09.559Z,13.90
2018-10-03T08:45:36.850Z,13.80
2018-10-03T08:48:04.084Z,13.80
2018-10-03T08:50:31.440Z,13.90
2018-10-03T08:52:58.704Z,15.60
2018-10-03T08:55:25.930Z,14.10
2018-10-03T08:57:53.128Z,15.00
2018-10-03T09:00:20.368Z,14.50
2018-10-03T09:02:47.595Z,14.60
2018-10-03T09:05:15.447Z,14.70
2018-10-03T09:07:42.690Z,15.00
2018-10-03T09:10:10.148Z,15.10
2018-10-03T09:12:37.429Z,15.20
2018-10-03T09:15:04.825Z,15.10
2018-10-03T09:17:32.213Z,15.00
2018-10-03T09:19:59.464Z,14.80
2018-10-03T09:22:26.706Z,14.80
2018-10-03T09:24:53.961Z,14.80
2018-10-03T09:27:21.352Z,14.80
2018-10-03T09:29:48.595Z,14.80
2018-10-03T09:32:15.943Z,14.90
2018-10-03T09:34:43.277Z,15.00
2018-10-03T09:37:10.594Z,15.50
2018-10-03T09:39:37.992Z,15.80
2018-10-03T09:42:05.464Z,16.00
2018-10-03T09:44:32.900Z,16.60
2018-10-03T09:47:00.083Z,16.70
2018-10-03T09:49:27.379Z,16.20
2018-10-03T09:51:54.658Z,15.90
2018-10-03T09:54:22.048Z,15.60
2018-10-03T09:56:49.929Z,15.30
2018-10-03T09:59:17.287Z,15.10
2018-10-03T10:01:44.577Z,15.10
2018-10-03T10:04:12.711Z,15.40
2018-10-03T10:06:39.963Z,15.50
2018-10-03T10:09:08.359Z,15.40
2018-10-03T10:11:35.779Z,16.00
2018-10-03T10:14:03.187Z,16.90
2018-10-03T10:16:31.858Z,19.20
2018-10-03T10:18:59.164Z,20.70
2018-10-03T10:21:27.037Z,21.70
2018-10-03T10:23:54.251Z,21.70
2018-10-03T10:26:21.484Z,21.70
2018-10-03T10:28:48.715Z,21.70
2018-10-03T10:31:16.061Z,21.70
2018-10-03T10:33:43.299Z,20.70
2018-10-03T10:36:10.548Z,19.50
2018-10-03T10:38:37.792Z,19.30
2018-10-03T10:41:05.307Z,20.60
2018-10-03T10:43:32.472Z,21.60
2018-10-03T10:45:59.656Z,22.80
2018-10-03T10:48:27.276Z,22.70
2018-10-03T10:50:54.527Z,22.70
2018-10-03T10:53:21.735Z,23.70
2018-10-03T10:55:49.024Z,23.10
2018-10-03T10:58:16.240Z,23.50
2018-10-03T11:00:43.492Z,22.90
2018-10-03T11:03:10.702Z,20.90
2018-10-03T11:05:37.991Z,19.80
2018-10-03T11:08:05.225Z,18.70
2018-10-03T11:10:32.443Z,18.00
2018-10-03T11:12:59.667Z,17.80
2018-10-03T11:15:27.123Z,17.70
2018-10-03T11:17:54.924Z,18.80
2018-10-03T11:20:22.175Z,19.30
2018-10-03T11:22:49.445Z,19.60
2018-10-03T11:25:16.688Z,20.00
2018-10-03T11:27:43.959Z,19.60
2018-10-03T11:30:11.198Z,19.20
2018-10-03T11:32:38.476Z,18.70
2018-10-03T11:35:06.122Z,18.00
2018-10-03T11:37:33.344Z,18.30
2018-10-03T11:40:00.588Z,18.40
2018-10-03T11:42:27.823Z,19.10
2018-10-03T11:44:55.027Z,19.40
2018-10-03T11:47:22.246Z,19.40
2018-10-03T11:49:49.449Z,20.20
2018-10-03T11:52:16.699Z,20.60
2018-10-03T11:54:43.916Z,20.80
2018-10-03T11:57:11.273Z,21.30
2018-10-03T11:59:38.468Z,21.20
2018-10-03T12:02:05.759Z,20.70
2018-10-03T12:04:32.995Z,20.00
2018-10-03T12:07:00.241Z,19.60
2018-10-03T12:09:27.463Z,21.90
2018-10-03T12:11:55.220Z,23.10
2018-10-03T12:14:22.452Z,24.30
2018-10-03T12:16:49.688Z,23.20
2018-10-03T12:19:16.916Z,21.70
2018-10-03T12:21:44.147Z,20.30
2018-10-03T12:24:11.362Z,19.30
2018-10-03T12:26:38.630Z,19.30
2018-10-03T12:29:05.895Z,18.50
2018-10-03T12:31:33.200Z,18.00
2018-10-03T12:34:03.737Z,18.80
2018-10-03T12:36:38.788Z,20.60
2018-10-03T12:39:07.796Z,21.60
2018-10-03T12:41:35.208Z,21.00
2018-10-03T12:44:02.551Z,19.90
2018-10-03T12:46:29.882Z,19.80
2018-10-03T12:48:57.248Z,20.50
2018-10-03T12:51:24.541Z,24.40
2018-10-03T12:53:51.823Z,25.40
2018-10-03T12:56:19.151Z,26.80
2018-10-03T12:58:46.438Z,27.10
2018-10-03T13:01:13.717Z,27.40
2018-10-03T13:03:40.984Z,27.70
2018-10-03T13:06:08.280Z,27.10
2018-10-03T13:08:35.501Z,26.40
2018-10-03T13:11:02.784Z,24.70
2018-10-03T13:13:30.042Z,22.60
2018-10-03T13:15:57.264Z,21.00
2018-10-03T13:18:24.519Z,20.90
2018-10-03T13:20:51.783Z,20.40
2018-10-03T13:23:19.064Z,20.80
2018-10-03T13:25:46.350Z,21.00
2018-10-03T13:28:13.580Z,20.10
2018-10-03T13:30:40.847Z,20.00
2018-10-03T13:33:08.051Z,22.50
2018-10-03T13:35:35.336Z,25.30
2018-10-03T13:38:02.556Z,26.80
2018-10-03T13:40:29.771Z,26.40
2018-10-03T13:42:57.040Z,25.30
2018-10-03T13:45:24.287Z,25.50
2018-10-03T13:47:51.567Z,26.10
2018-10-03T13:50:18.820Z,26.30
2018-10-03T13:52:46.069Z,27.30
2018-10-03T13:55:13.396Z,27.60
2018-10-03T13:57:40.640Z,27.30
2018-10-03T14:00:08.252Z,25.60
2018-10-03T14:02:35.546Z,22.90
2018-10-03T14:05:02.811Z,21.30
2018-10-03T14:07:30.080Z,20.60
2018-10-03T14:09:57.363Z,20.00
2018-10-03T14:12:24.652Z,19.60
2018-10-03T14:14:51.933Z,19.20
2018-10-03T14:17:19.199Z,18.60
2018-10-03T14:19:46.472Z,19.30
2018-10-03T14:22:13.731Z,20.50
2018-10-03T14:24:40.991Z,21.50
2018-10-03T14:27:08.306Z,21.70
2018-10-03T14:29:35.636Z,21.40
2018-10-03T14:32:03.031Z,20.80
2018-10-03T14:34:30.297Z,21.40
2018-10-03T14:36:57.575Z,22.20
2018-10-03T14:39:24.859Z,23.20
2018-10-03T14:41:52.154Z,23.80
2018-10-03T14:44:19.457Z,23.40
2018-10-03T14:46:46.798Z,22.60
2018-10-03T14:49:14.012Z,20.80
2018-10-03T14:51:41.287Z,19.80
2018-10-03T14:54:08.553Z,19.50
2018-10-03T14:56:35.891Z,19.50
2018-10-03T14:59:03.191Z,19.60
2018-10-03T15:01:30.516Z,19.10
2018-10-03T15:03:57.770Z,19.30
2018-10-03T15:06:25.036Z,18.70
2018-10-03T15:08:52.288Z,18.70
2018-10-03T15:11:19.560Z,18.70
2018-10-03T15:13:46.879Z,18.90
2018-10-03T15:16:14.171Z,18.70
2018-10-03T15:18:41.439Z,19.60
2018-10-03T15:21:08.713Z,18.90
2018-10-03T15:23:36.053Z,18.70
2018-10-03T15:26:03.315Z,18.90
2018-10-03T15:28:30.586Z,18.10
2018-10-03T15:30:57.831Z,17.70
2018-10-03T15:33:25.092Z,17.30
2018-10-03T15:35:52.404Z,16.80
2018-10-03T15:38:19.907Z,16.80
2018-10-03T15:40:47.150Z,16.90
2018-10-03T15:43:14.407Z,17.40
2018-10-03T15:45:41.651Z,17.70
2018-10-03T15:48:08.959Z,17.50
2018-10-03T15:50:36.196Z,18.70
2018-10-03T15:53:03.451Z,17.60
2018-10-03T15:55:30.731Z,17.70
2018-10-03T15:57:57.943Z,17.20
2018-10-03T16:00:25.260Z,16.90
2018-10-03T16:02:52.472Z,16.60
2018-10-03T16:05:19.787Z,16.30
2018-10-03T16:07:47.072Z,16.00
2018-10-03T16:10:14.364Z,15.80
2018-10-03T16:12:41.616Z,15.60
2018-10-03T16:15:15.663Z,15.50
2018-10-03T16:17:42.936Z,15.30
2018-10-03T16:20:10.599Z,15.10
2018-10-03T16:22:38.072Z,15.00
2018-10-03T16:25:05.495Z,14.80
2018-10-03T16:27:33.192Z,14.70
2018-10-03T16:30:00.471Z,15.00
2018-10-03T16:32:27.962Z,14.50
2018-10-03T16:34:55.351Z,14.40
2018-10-03T16:37:22.644Z,14.30
2018-10-03T16:39:49.894Z,14.20
2018-10-03T16:42:17.143Z,14.10
2018-10-03T16:44:44.477Z,14.10
2018-10-03T16:47:11.744Z,14.00
2018-10-03T16:49:39.061Z,13.90
2018-10-03T16:52:06.719Z,13.70
2018-10-03T16:54:34.202Z,13.70
2018-10-03T16:57:01.964Z,13.60
2018-10-03T16:59:29.295Z,13.50
2018-10-03T17:01:56.965Z,13.50
2018-10-03T17:04:24.212Z,13.40
2018-10-03T17:06:53.029Z,13.70
2018-10-03T17:09:20.623Z,13.30
2018-10-03T17:11:47.924Z,13.10
2018-10-03T17:14:28.370Z,13.60
2018-10-03T17:16:55.890Z,12.80
2018-10-03T17:19:23.515Z,13.10
2018-10-03T17:21:51.618Z,13.00
2018-10-03T17:24:19.679Z,12.80
2018-10-03T17:26:50.484Z,12.70
2018-10-03T17:29:18.636Z,12.60
2018-10-03T17:31:46.665Z,12.70
2018-10-03T17:34:16.748Z,12.40
2018-10-03T17:36:45.860Z,12.60
2018-10-03T17:39:13.431Z,12.50
2018-10-03T17:41:41.573Z,12.70
2018-10-03T17:44:15.699Z,12.20
2018-10-03T17:46:43.186Z,11.80
2018-10-03T17:49:10.559Z,12.60
2018-10-03T17:51:42.404Z,11.90
2018-10-03T17:59:04.467Z,11.70
2018-10-03T18:01:33.853Z,11.80
2018-10-03T18:04:01.307Z,11.90
2018-10-03T18:08:55.933Z,11.40
2018-10-03T18:11:23.199Z,11.40
2018-10-03T18:13:50.625Z,11.70
2018-10-03T18:16:17.844Z,11.80
2018-10-03T18:18:45.142Z,11.20
2018-10-03T18:21:12.584Z,11.10
2018-10-03T18:23:39.903Z,11.00
2018-10-03T18:26:07.299Z,10.90
2018-10-03T18:28:34.641Z,10.20
2018-10-03T18:31:01.943Z,10.80
2018-10-03T18:33:29.219Z,10.70
2018-10-03T18:36:01.215Z,10.70
2018-10-03T18:38:28.575Z,10.60
2018-10-03T18:40:55.906Z,10.70
2018-10-03T18:43:23.159Z,10.70
2018-10-03T18:45:50.659Z,10.70
2018-10-03T18:48:18.007Z,11.20
2018-10-03T18:50:45.340Z,10.70
2018-10-03T18:53:12.668Z,10.70
2018-10-03T18:55:39.932Z,10.70
2018-10-03T18:58:07.242Z,10.60
2018-10-03T19:00:34.524Z,10.70
2018-10-03T19:03:01.833Z,10.60
2018-10-03T19:05:29.125Z,10.60
2018-10-03T19:07:56.379Z,10.50
2018-10-03T19:10:23.798Z,10.50
2018-10-03T19:12:51.536Z,10.60
2018-10-03T19:15:18.778Z,10.30
2018-10-03T19:17:46.066Z,10.40
2018-10-03T19:20:13.319Z,10.30
2018-10-03T19:22:40.560Z,10.30
2018-10-03T19:25:08.040Z,10.70
2018-10-03T19:27:35.369Z,10.40
2018-10-03T19:30:03.184Z,10.30
2018-10-03T19:32:30.944Z,10.60
2018-10-03T19:34:58.336Z,10.70
2018-10-03T19:37:25.637Z,10.70
2018-10-03T19:39:53.613Z,10.60
2018-10-03T19:42:20.864Z,10.50
2018-10-03T19:44:48.920Z,11.00
2018-10-03T19:47:17.155Z,11.00
2018-10-03T19:49:45.423Z,10.50
2018-10-03T19:52:14.168Z,10.20
2018-10-03T19:54:42.760Z,11.10
2018-10-03T19:57:10.510Z,10.70
2018-10-03T19:59:37.791Z,10.10
2018-10-03T20:02:05.354Z,10.30
2018-10-03T20:04:36.002Z,10.10
2018-10-03T20:07:03.893Z,10.30
2018-10-03T20:09:31.498Z,10.30
2018-10-03T20:11:58.997Z,10.60
2018-10-03T20:14:26.455Z,10.40
2018-10-03T20:16:53.723Z,10.20
2018-10-03T20:19:21.484Z,9.90
2018-10-03T20:21:49.483Z,10.10
2018-10-03T20:24:17.333Z,10.00
2018-10-03T20:26:44.745Z,10.20
2018-10-03T20:29:12.848Z,10.00
2018-10-03T20:31:45.883Z,10.50
2018-10-03T20:34:13.679Z,10.00
2018-10-03T20:36:40.947Z,10.20
2018-10-03T20:39:08.707Z,11.20
2018-10-03T20:41:36.732Z,9.80
2018-10-03T20:44:04.530Z,10.00
2018-10-03T20:46:32.522Z,10.90
2018-10-03T20:48:59.772Z,10.60
2018-10-03T20:51:27.571Z,10.20
2018-10-03T20:56:43.118Z,9.80
2018-10-03T20:59:10.406Z,10.30
2018-10-03T21:01:38.426Z,10.00
2018-10-03T21:04:05.895Z,10.40
2018-10-03T21:06:33.739Z,10.00
2018-10-03T21:09:01.099Z,10.00
2018-10-03T21:11:28.843Z,10.60
2018-10-03T21:13:56.129Z,9.90
2018-10-03T21:16:23.393Z,9.90
2018-10-03T21:18:50.687Z,10.00
2018-10-03T21:21:18.044Z,9.70
2018-10-03T21:23:45.368Z,9.90
2018-10-03T21:26:12.611Z,9.90
2018-10-03T21:28:39.862Z,10.30
2018-10-03T21:31:07.437Z,10.00
2018-10-03T21:33:34.691Z,9.90
2018-10-03T21:36:01.945Z,10.10
2018-10-03T21:38:29.224Z,10.00
2018-10-03T21:40:56.452Z,10.20
2018-10-03T21:43:23.679Z,9.90
2018-10-03T21:45:51.202Z,9.90
2018-10-03T21:48:18.519Z,9.90
2018-10-03T21:50:45.791Z,9.90
2018-10-03T21:53:13.064Z,10.50
2018-10-03T21:55:40.293Z,9.70
2018-10-03T21:58:07.555Z,9.80
2018-10-03T22:00:40.635Z,9.60
2018-10-03T22:03:07.915Z,9.80
2018-10-03T22:05:35.244Z,9.90
2018-10-03T22:08:02.796Z,9.60
2018-10-03T22:10:30.104Z,9.50
2018-10-03T22:12:57.452Z,9.40
2018-10-03T22:15:25.416Z,9.40
2018-10-03T22:17:52.787Z,9.30
2018-10-03T22:20:20.641Z,9.20
2018-10-03T22:22:48.104Z,9.90
2018-10-03T22:25:15.572Z,9.00
2018-10-03T22:27:42.990Z,9.00
2018-10-03T22:30:10.326Z,8.90
2018-10-03T22:32:37.823Z,8.90
2018-10-03T22:35:05.280Z,8.90
2018-10-03T22:37:32.626Z,8.90
2018-10-03T22:39:59.962Z,8.80
2018-10-03T22:42:27.275Z,8.80
2018-10-03T22:44:54.602Z,9.20
2018-10-03T22:47:22.199Z,8.80
2018-10-03T22:49:49.605Z,8.80
2018-10-03T22:52:17.283Z,8.80
2018-10-03T22:54:44.616Z,9.10
2018-10-03T22:57:11.986Z,8.80
2018-10-03T22:59:39.285Z,8.80
2018-10-03T23:02:08.601Z,8.80
2018-10-03T23:04:35.883Z,8.90
2018-10-03T23:07:03.246Z,9.00
2018-10-03T23:09:30.761Z,9.00
2018-10-03T23:11:58.112Z,9.00
2018-10-03T23:14:25.566Z,9.00
2018-10-03T23:16:52.913Z,9.10
2018-10-03T23:19:20.287Z,9.00
2018-10-03T23:21:47.655Z,9.00
2018-10-03T23:24:15.012Z,9.00
2018-10-03T23:26:42.377Z,9.00
2018-10-03T23:29:09.711Z,9.00
2018-10-03T23:31:36.964Z,9.10
2018-10-03T23:34:04.252Z,9.10
2018-10-03T23:36:31.519Z,9.20
2018-10-03T23:38:58.818Z,9.30
2018-10-03T23:41:26.143Z,9.20
2018-10-03T23:43:53.445Z,9.30
2018-10-03T23:46:20.777Z,9.20
2018-10-03T23:48:48.191Z,9.20
2018-10-03T23:51:15.553Z,9.20
2018-10-03T23:53:43.007Z,9.40
2018-10-03T23:56:10.327Z,9.10
2018-10-03T23:58:37.628Z,9.10
